EST,Max TemperatureF,Mean TemperatureF,Min TemperatureF,Max Dew PointF,MeanDew PointF,Min DewpointF,Max Humidity, Mean Humidity, Min Humidity, Max Sea Level PressureIn, Mean Sea Level PressureIn, Min Sea Level PressureIn, Max VisibilityMiles, Mean VisibilityMiles, Min VisibilityMiles, Max Wind SpeedMPH, Mean Wind SpeedMPH, Max Gust SpeedMPH,PrecipitationIn, CloudCover, Events, WindDirDegrees
2013-12-1,55,38,21,32,28,21,100,80,33,30.38,30.20,30.05,10,10,7,6,0,,0.00,0,,206
2013-12-2,59,44,28,37,34,28,100,78,44,30.03,29.92,29.85,10,10,10,7,1,,0.00,4,,90
2013-12-3,55,44,32,46,39,32,100,84,58,30.02,29.95,29.89,10,10,4,8,1,,0.00,6,Rain,180
2013-12-4,59,54,48,55,52,46,100,96,82,30.10,30.05,30.00,10,6,1,5,1,,0.04,8,Rain,183
2013-12-5,66,58,51,64,60,52,100,98,83,30.14,30.09,30.05,10,6,0,15,6,21,0.04,8,Fog-Rain,204
2013-12-6,75,70,64,64,62,59,100,80,61,30.08,30.02,29.99,10,10,10,21,12,32,0.00,4,Rain,209
2013-12-7,68,54,41,63,40,32,100,85,70,30.49,30.31,30.02,10,10,2,18,9,25,0.35,8,Rain-Thunderstorm,33
2013-12-8,39,36,32,32,31,27,100,92,70,30.50,30.42,30.30,10,6,2,13,8,17,0.01,8,,37
2013-12-9,42,37,32,43,38,32,100,100,100,30.31,30.16,30.07,10,5,1,7,1,,0.30,8,Rain,212
2013-12-10,46,37,26,43,36,19,100,89,52,30.33,30.10,29.95,10,8,2,12,2,21,0.29,5,Rain,343
2013-12-11,46,34,23,30,24,19,100,76,34,30.46,30.36,30.30,10,10,10,8,1,,0.00,0,,240
2013-12-12,41,31,21,30,20,10,100,63,29,30.44,30.36,30.29,10,10,10,12,3,16,0.00,0,,330
2013-12-13,50,34,19,30,22,14,100,71,28,30.39,30.33,30.27,10,10,10,9,1,17,0.00,0,,240
2013-12-14,44,38,33,41,34,28,100,87,53,30.31,30.09,29.80,10,8,1,12,3,,0.42,7,Rain,50
2013-12-15,50,40,30,41,33,28,100,80,47,30.08,29.88,29.72,10,8,2,14,4,22,0.00,3,Rain,295
2013-12-16,53,40,26,32,30,25,100,77,44,30.18,30.12,30.07,10,10,10,8,1,,0.00,0,,277
2013-12-17,60,44,28,41,33,28,100,73,34,30.12,30.03,29.88,10,10,10,18,2,30,0.00,1,Rain-Thunderstorm,233
2013-12-18,46,36,26,36,22,16,93,58,29,30.30,30.22,30.05,10,10,10,12,3,18,0.00,0,,293
2013-12-19,60,42,24,30,23,19,93,52,22,30.31,30.26,30.22,10,10,10,15,3,23,0.00,0,,214
2013-12-20,64,50,35,50,41,28,87,67,50,30.25,30.19,30.13,10,10,10,14,5,24,0.00,1,,217
2013-12-21,71,58,46,64,54,46,100,83,57,30.16,30.10,30.05,10,10,10,18,6,26,0.00,2,,201
2013-12-22,73,66,60,68,63,59,100,87,73,30.12,30.06,30.01,10,10,3,18,12,29,0.17,8,Rain,203
2013-12-23,64,53,42,64,55,34,100,93,66,30.19,30.09,30.03,10,10,4,13,8,18,0.74,8,Rain,257
2013-12-24,42,35,28,34,25,12,81,60,42,30.47,30.29,30.18,10,10,10,15,7,25,0.00,4,,338
2013-12-25,35,28,21,19,14,9,93,59,35,30.56,30.48,30.41,10,10,10,7,3,,0.00,0,,28
2013-12-26,51,35,19,28,23,18,100,74,32,30.41,30.33,30.25,10,10,10,9,1,,0.00,1,,279
2013-12-27,50,36,21,32,23,18,100,74,28,30.48,30.42,30.38,10,10,10,5,0,,0.00,0,,331
2013-12-28,57,40,23,43,28,21,100,75,25,30.42,30.33,30.18,10,10,7,7,1,,0.04,2,Rain,230
2013-12-29,53,44,35,50,43,36,100,93,71,30.17,29.88,29.72,10,8,1,12,3,23,1.11,5,Rain,272
2013-12-30,51,42,32,41,35,32,100,80,58,30.16,30.06,29.94,10,9,2,7,1,,0.00,3,,330
2013-12-31,50,39,28,36,28,19,100,71,30,30.37,30.25,30.14,10,9,0,14,3,24,0.00,2,Fog,292